createdAt,value
2018-05-13T00:00:17.522Z,40.99
2018-05-13T00:00:58.057Z,40.89
2018-05-13T00:01:39.472Z,41.08
2018-05-13T00:02:19.999Z,40.89
2018-05-13T00:03:00.526Z,40.99
2018-05-13T00:03:41.733Z,41.08
2018-05-13T00:04:21.583Z,41.17
2018-05-13T00:05:02.110Z,40.99
2018-05-13T00:05:42.661Z,40.99
2018-05-13T00:06:23.157Z,41.08
2018-05-13T00:07:03.689Z,41.08
2018-05-13T00:07:44.265Z,41.08
2018-05-13T00:08:25.355Z,40.99
2018-05-13T00:09:06.564Z,40.99
2018-05-13T00:09:47.093Z,40.99
2018-05-13T00:10:27.629Z,40.79
2018-05-13T00:11:08.165Z,41.17
2018-05-13T00:11:48.691Z,41.17
2018-05-13T00:12:29.216Z,41.17
2018-05-13T00:13:10.232Z,41.27
2018-05-13T00:13:50.220Z,40.89
2018-05-13T00:14:30.791Z,40.89
2018-05-13T00:15:11.270Z,40.89
2018-05-13T00:15:52.730Z,40.99
2018-05-13T00:16:32.322Z,40.96
2018-05-13T00:17:12.843Z,41.16
2018-05-13T00:17:53.373Z,41.06
2018-05-13T00:18:33.904Z,40.96
2018-05-13T00:19:14.435Z,40.96
2018-05-13T00:19:54.959Z,40.96
2018-05-13T00:20:35.489Z,41.25
2018-05-13T00:21:16.564Z,41.25
2018-05-13T00:21:57.089Z,41.25
2018-05-13T00:22:37.622Z,41.25
2018-05-13T00:23:18.153Z,41.35
2018-05-13T00:23:58.693Z,41.25
2018-05-13T00:24:39.220Z,41.44
2018-05-13T00:25:19.752Z,41.44
2018-05-13T00:26:00.283Z,41.35
2018-05-13T00:26:40.812Z,41.35
2018-05-13T00:27:21.344Z,41.35
2018-05-13T00:28:02.735Z,41.16
2018-05-13T00:28:43.296Z,41.25
2018-05-13T00:29:24.685Z,41.25
2018-05-13T00:30:05.224Z,41.25
2018-05-13T00:30:45.751Z,40.96
2018-05-13T00:31:26.277Z,41.35
2018-05-13T00:32:06.807Z,41.35
2018-05-13T00:32:47.326Z,41.25
2018-05-13T00:33:27.842Z,41.16
2018-05-13T00:34:08.371Z,41.25
2018-05-13T00:34:49.736Z,41.54
2018-05-13T00:35:29.433Z,41.35
2018-05-13T00:36:09.960Z,41.54
2018-05-13T00:36:50.494Z,41.06
2018-05-13T00:37:31.019Z,41.16
2018-05-13T00:38:11.543Z,41.25
2018-05-13T00:38:52.074Z,41.25
2018-05-13T00:39:32.601Z,41.25
2018-05-13T00:40:13.128Z,41.25
2018-05-13T00:40:53.649Z,41.25
2018-05-13T00:41:34.737Z,41.06
2018-05-13T00:42:14.682Z,41.06
2018-05-13T00:42:55.210Z,41.16
2018-05-13T00:43:35.740Z,41.25
2018-05-13T00:44:16.272Z,41.35
2018-05-13T00:44:56.801Z,41.35
2018-05-13T00:45:38.237Z,41.44
2018-05-13T00:46:17.845Z,41.44
2018-05-13T00:46:58.373Z,41.44
2018-05-13T00:47:38.906Z,41.44
2018-05-13T00:48:19.440Z,41.35
2018-05-13T00:48:59.961Z,41.42
2018-05-13T00:49:40.496Z,41.63
2018-05-13T00:50:21.012Z,41.54
2018-05-13T00:51:01.533Z,41.33
2018-05-13T00:51:42.050Z,41.33
2018-05-13T00:52:22.582Z,41.42
2018-05-13T00:53:03.110Z,41.54
2018-05-13T00:53:43.640Z,41.63
2018-05-13T00:54:24.168Z,41.61
2018-05-13T00:55:04.700Z,41.61
2018-05-13T00:55:45.222Z,41.42
2018-05-13T00:56:25.758Z,41.61
2018-05-13T00:57:06.327Z,41.42
2018-05-13T00:57:47.360Z,41.61
2018-05-13T00:58:28.740Z,41.52
2018-05-13T00:59:08.417Z,41.61
2018-05-13T00:59:48.951Z,41.52
2018-05-13T01:00:29.514Z,41.52
2018-05-13T01:01:10.019Z,41.52
2018-05-13T01:01:50.525Z,41.54
2018-05-13T01:02:31.609Z,41.54
2018-05-13T01:03:12.132Z,41.52
2018-05-13T01:03:52.668Z,41.42
2018-05-13T01:04:33.196Z,41.61
2018-05-13T01:05:14.982Z,41.33
2018-05-13T01:05:56.241Z,41.35
2018-05-13T01:06:36.798Z,41.44
2018-05-13T01:07:17.300Z,41.54
2018-05-13T01:07:57.833Z,41.44
2018-05-13T01:08:39.245Z,41.42
2018-05-13T01:09:18.895Z,41.35
2018-05-13T01:10:00.261Z,41.54
2018-05-13T01:10:40.782Z,41.52
2018-05-13T01:11:21.308Z,41.25
2018-05-13T01:12:02.749Z,41.54
2018-05-13T01:12:43.292Z,41.44
2018-05-13T01:13:24.744Z,41.35
2018-05-13T01:14:04.332Z,41.35
2018-05-13T01:14:44.860Z,41.61
2018-05-13T01:15:25.604Z,41.33
2018-05-13T01:16:06.133Z,41.63
2018-05-13T01:16:47.244Z,41.63
2018-05-13T01:17:27.181Z,41.35
2018-05-13T01:18:08.247Z,41.63
2018-05-13T01:18:48.220Z,41.35
2018-05-13T01:19:28.745Z,41.63
2018-05-13T01:20:09.272Z,41.63
2018-05-13T01:20:49.802Z,41.42
2018-05-13T01:21:30.328Z,41.61
2018-05-13T01:22:10.852Z,41.63
2018-05-13T01:22:51.377Z,41.63
2018-05-13T01:23:31.906Z,41.61
2018-05-13T01:24:12.423Z,41.54
2018-05-13T01:24:53.745Z,41.63
2018-05-13T01:25:33.480Z,41.52
2018-05-13T01:26:14.016Z,41.54
2018-05-13T01:26:54.541Z,41.44
2018-05-13T01:27:35.068Z,41.63
2018-05-13T01:28:15.600Z,41.44
2018-05-13T01:28:57.014Z,41.44
2018-05-13T01:29:37.541Z,41.52
2018-05-13T01:30:18.072Z,41.63
2018-05-13T01:30:58.601Z,41.54
2018-05-13T01:31:39.746Z,41.52
2018-05-13T01:32:19.648Z,41.33
2018-05-13T01:33:00.174Z,41.52
2018-05-13T01:33:40.701Z,41.44
2018-05-13T01:34:21.230Z,41.61
2018-05-13T01:35:01.762Z,41.54
2018-05-13T01:35:42.288Z,41.61
2018-05-13T01:36:23.752Z,41.54
2018-05-13T01:37:03.346Z,41.63
2018-05-13T01:37:44.748Z,41.54
2018-05-13T01:38:24.392Z,41.44
2018-05-13T01:39:05.748Z,41.83
2018-05-13T01:39:46.250Z,41.54
2018-05-13T01:40:25.950Z,41.71
2018-05-13T01:41:06.473Z,41.73
2018-05-13T01:41:46.998Z,41.73
2018-05-13T01:42:27.522Z,41.73
2018-05-13T01:43:08.749Z,41.83
2018-05-13T01:43:49.250Z,41.8
2018-05-13T01:44:29.100Z,41.73
2018-05-13T01:45:09.626Z,41.83
2018-05-13T01:45:50.140Z,41.93
2018-05-13T01:46:30.677Z,41.83
2018-05-13T01:47:11.199Z,41.83
2018-05-13T01:47:51.714Z,41.83
2018-05-13T01:48:32.239Z,41.73
2018-05-13T01:49:12.755Z,41.9
2018-05-13T01:49:53.282Z,41.73
2018-05-13T01:50:33.814Z,41.83
2018-05-13T01:51:14.343Z,41.83
2018-05-13T01:51:54.870Z,41.63
2018-05-13T01:52:36.751Z,41.83
2018-05-13T01:53:17.021Z,41.83
2018-05-13T01:53:57.551Z,41.73
2018-05-13T01:54:38.084Z,41.83
2018-05-13T01:55:18.622Z,41.63
2018-05-13T01:55:59.147Z,41.44
2018-05-13T01:56:40.484Z,41.44
2018-05-13T01:57:21.008Z,41.52
2018-05-13T01:58:01.545Z,41.61
2018-05-13T01:58:42.072Z,41.61
2018-05-13T01:59:22.605Z,41.9
2018-05-13T02:00:03.138Z,41.9
2018-05-13T02:00:44.254Z,42
2018-05-13T02:01:24.177Z,41.71
2018-05-13T02:02:04.704Z,41.71
2018-05-13T02:02:45.229Z,41.8
2018-05-13T02:03:25.762Z,41.8
2018-05-13T02:04:06.288Z,41.8
2018-05-13T02:04:46.819Z,41.8
2018-05-13T02:05:27.346Z,41.9
2018-05-13T02:06:07.880Z,41.8
2018-05-13T02:06:49.253Z,41.8
2018-05-13T02:07:28.944Z,41.71
2018-05-13T02:08:09.456Z,41.8
2018-05-13T02:08:49.987Z,41.9
2018-05-13T02:09:30.523Z,41.9
2018-05-13T02:10:11.046Z,41.71
2018-05-13T02:10:51.581Z,41.9
2018-05-13T02:11:32.105Z,42
2018-05-13T02:12:12.633Z,42
2018-05-13T02:12:53.165Z,42
2018-05-13T02:13:33.718Z,42.1
2018-05-13T02:14:14.755Z,41.8
2018-05-13T02:14:55.256Z,41.71
2018-05-13T02:15:35.713Z,41.9
2018-05-13T02:16:16.245Z,41.9
2018-05-13T02:16:56.780Z,42
2018-05-13T02:17:37.305Z,41.8
2018-05-13T02:18:17.835Z,42
2018-05-13T02:19:00.754Z,41.9
2018-05-13T02:19:40.970Z,41.9
2018-05-13T02:20:21.494Z,42.07
2018-05-13T02:21:02.030Z,42.07
2018-05-13T02:21:42.557Z,42.29
2018-05-13T02:22:23.616Z,42.17
2018-05-13T02:23:04.146Z,41.97
2018-05-13T02:23:45.171Z,42.17
2018-05-13T02:24:26.255Z,42.38
2018-05-13T02:25:06.235Z,42.17
2018-05-13T02:25:46.755Z,42.36
2018-05-13T02:26:27.756Z,42.36
2018-05-13T02:27:07.810Z,42.36
2018-05-13T02:27:48.301Z,42.36
2018-05-13T02:28:28.837Z,42.27
2018-05-13T02:29:09.364Z,42.17
2018-05-13T02:29:50.763Z,42.36
2018-05-13T02:30:31.219Z,42.17
2018-05-13T02:31:11.753Z,42.36
2018-05-13T02:31:52.271Z,42.27
2018-05-13T02:32:32.801Z,42.46
2018-05-13T02:33:13.330Z,42.27
2018-05-13T02:33:53.854Z,42.17
2018-05-13T02:34:35.260Z,42.27
2018-05-13T02:35:14.893Z,42.27
2018-05-13T02:35:55.417Z,42.27
2018-05-13T02:36:35.941Z,42.27
2018-05-13T02:37:16.470Z,42.27
2018-05-13T02:37:57.011Z,42.27
2018-05-13T02:38:37.530Z,42.07
2018-05-13T02:39:18.060Z,42.17
2018-05-13T02:39:58.594Z,42.17
2018-05-13T02:40:39.116Z,42.17
2018-05-13T02:41:19.632Z,42.27
2018-05-13T02:42:00.146Z,41.97
2018-05-13T02:42:41.261Z,42.46
2018-05-13T02:43:21.200Z,42.36
2018-05-13T02:44:01.724Z,42.36
2018-05-13T02:44:42.254Z,42.46
2018-05-13T02:45:24.264Z,42.46
2018-05-13T02:46:03.846Z,42.65
2018-05-13T02:46:45.898Z,42.46
2018-05-13T02:47:26.427Z,42.55
2018-05-13T02:48:06.953Z,42.46
2018-05-13T02:48:48.277Z,42.55
2018-05-13T02:49:27.992Z,42.46
2018-05-13T02:50:08.519Z,42.65
2018-05-13T02:50:49.037Z,42.44
2018-05-13T02:51:29.565Z,42.46
2018-05-13T02:52:10.764Z,42.53
2018-05-13T02:52:50.622Z,42.24
2018-05-13T02:53:31.900Z,42.63
2018-05-13T02:54:12.434Z,43.01
2018-05-13T02:54:52.965Z,42.72
2018-05-13T02:55:33.495Z,42.82
2018-05-13T02:56:14.004Z,43.1
2018-05-13T02:56:57.220Z,43.01
2018-05-13T02:57:37.756Z,42.91
2018-05-13T02:58:18.367Z,43.01
2018-05-13T02:58:58.814Z,43.01
2018-05-13T02:59:41.263Z,42.91
2018-05-13T03:00:20.841Z,42.91
2018-05-13T03:01:01.362Z,43.01
2018-05-13T03:01:41.887Z,43.1
2018-05-13T03:02:22.408Z,42.91
2018-05-13T03:03:02.944Z,42.91
2018-05-13T03:03:43.468Z,42.82
2018-05-13T03:04:24.769Z,42.82
2018-05-13T03:05:04.513Z,42.91
2018-05-13T03:05:45.065Z,42.91
2018-05-13T03:06:25.572Z,42.82
2018-05-13T03:07:06.765Z,42.82
2018-05-13T03:07:46.739Z,42.82
2018-05-13T03:08:27.499Z,42.72
2018-05-13T03:09:08.770Z,42.82
2018-05-13T03:09:48.529Z,42.82
2018-05-13T03:10:29.060Z,42.53
2018-05-13T03:11:09.580Z,42.63
2018-05-13T03:11:50.098Z,42.63
2018-05-13T03:12:31.531Z,42.91
2018-05-13T03:13:12.060Z,42.63
2018-05-13T03:13:53.339Z,43.01
2018-05-13T03:14:33.854Z,42.72
2018-05-13T03:15:14.386Z,42.72
2018-05-13T03:15:54.917Z,42.82
2018-05-13T03:16:35.435Z,42.8
2018-05-13T03:17:15.966Z,42.72
2018-05-13T03:17:56.500Z,42.51
2018-05-13T03:18:37.027Z,42.9
2018-05-13T03:19:17.557Z,42.6
2018-05-13T03:19:58.092Z,42.8
2018-05-13T03:20:38.614Z,43.08
2018-05-13T03:21:19.140Z,42.99
2018-05-13T03:21:59.655Z,42.7
2018-05-13T03:22:40.185Z,42.91
2018-05-13T03:23:20.853Z,42.9
2018-05-13T03:24:02.269Z,42.99
2018-05-13T03:24:42.831Z,43.1
2018-05-13T03:25:23.453Z,42.51
2018-05-13T03:26:03.977Z,43.1
2018-05-13T03:26:44.499Z,43.08
2018-05-13T03:27:25.024Z,42.99
2018-05-13T03:28:05.541Z,42.99
2018-05-13T03:28:46.068Z,42.9
2018-05-13T03:29:26.600Z,42.99
2018-05-13T03:30:07.775Z,42.9
2018-05-13T03:30:47.656Z,42.99
2018-05-13T03:31:28.179Z,42.99
2018-05-13T03:32:08.704Z,42.9
2018-05-13T03:32:49.768Z,42.99
2018-05-13T03:33:30.322Z,42.99
2018-05-13T03:34:10.852Z,42.99
2018-05-13T03:34:51.383Z,42.99
2018-05-13T03:35:31.897Z,42.9
2018-05-13T03:36:12.430Z,42.9
2018-05-13T03:36:52.957Z,43.08
2018-05-13T03:37:33.487Z,43.08
2018-05-13T03:38:14.020Z,43.08
2018-05-13T03:38:54.558Z,42.9
2018-05-13T03:39:35.110Z,42.8
2018-05-13T03:40:16.510Z,42.9
2018-05-13T03:40:57.031Z,42.8
2018-05-13T03:41:37.552Z,42.9
2018-05-13T03:42:18.077Z,42.8
2018-05-13T03:42:59.406Z,42.9
2018-05-13T03:43:39.934Z,42.99
2018-05-13T03:44:20.464Z,43.08
2018-05-13T03:45:02.275Z,43.08
2018-05-13T03:45:41.509Z,42.8
2018-05-13T03:46:22.032Z,42.9
2018-05-13T03:47:02.569Z,42.8
2018-05-13T03:47:43.089Z,42.8
2018-05-13T03:48:23.600Z,42.9
2018-05-13T03:49:04.128Z,42.99
2018-05-13T03:49:44.665Z,42.99
2018-05-13T03:50:25.187Z,42.9
2018-05-13T03:51:05.723Z,42.99
2018-05-13T03:51:46.771Z,42.99
2018-05-13T03:52:26.775Z,42.99
2018-05-13T03:53:07.305Z,42.99
2018-05-13T03:53:47.836Z,43.08
2018-05-13T03:54:28.443Z,43.08
2018-05-13T03:55:08.880Z,42.8
2018-05-13T03:55:49.908Z,42.99
2018-05-13T03:56:30.441Z,42.9
2018-05-13T03:57:10.952Z,42.99
2018-05-13T03:57:51.480Z,42.99
2018-05-13T03:58:32.004Z,42.6
2018-05-13T03:59:12.535Z,42.6
2018-05-13T03:59:53.064Z,42.51
2018-05-13T04:00:33.589Z,42.51
2018-05-13T04:01:14.118Z,42.7
2018-05-13T04:01:54.642Z,42.7
2018-05-13T04:02:35.173Z,42.7
2018-05-13T04:03:15.692Z,42.51
2018-05-13T04:03:56.232Z,42.51
2018-05-13T04:04:37.281Z,42.51
2018-05-13T04:05:17.267Z,42.6
2018-05-13T04:05:57.793Z,42.8
2018-05-13T04:06:39.278Z,42.7
2018-05-13T04:07:18.882Z,42.9
2018-05-13T04:07:59.356Z,42.99
2018-05-13T04:08:39.888Z,42.9
2018-05-13T04:09:20.400Z,42.99
2018-05-13T04:10:00.929Z,42.9
2018-05-13T04:10:41.459Z,42.9
2018-05-13T04:11:22.776Z,42.99
2018-05-13T04:12:02.509Z,42.9
2018-05-13T04:12:43.042Z,42.99
2018-05-13T04:13:23.561Z,42.6
2018-05-13T04:14:04.084Z,42.7
2018-05-13T04:14:45.274Z,42.8
2018-05-13T04:15:25.155Z,42.8
2018-05-13T04:16:05.682Z,42.7
2018-05-13T04:16:46.775Z,42.7
2018-05-13T04:17:27.413Z,42.6
2018-05-13T04:18:07.946Z,42.63
2018-05-13T04:18:48.472Z,42.72
2018-05-13T04:19:29.518Z,42.8
2018-05-13T04:20:10.793Z,42.7
2018-05-13T04:20:51.358Z,42.8
2018-05-13T04:21:31.886Z,42.91
2018-05-13T04:22:12.410Z,42.8
2018-05-13T04:22:52.939Z,42.7
2018-05-13T04:23:34.196Z,42.7
2018-05-13T04:24:15.537Z,42.7
2018-05-13T04:24:56.085Z,42.51
2018-05-13T04:25:36.602Z,42.6
2018-05-13T04:26:17.127Z,42.51
2018-05-13T04:26:58.279Z,42.6
2018-05-13T04:27:38.184Z,42.63
2018-05-13T04:28:19.547Z,42.51
2018-05-13T04:29:00.057Z,42.51
2018-05-13T04:29:40.590Z,42.8
2018-05-13T04:30:21.105Z,42.72
2018-05-13T04:31:01.647Z,42.82
2018-05-13T04:31:42.165Z,42.82
2018-05-13T04:32:22.729Z,42.91
2018-05-13T04:33:03.777Z,42.82
2018-05-13T04:33:43.772Z,42.91
2018-05-13T04:34:24.315Z,43.1
2018-05-13T04:35:04.863Z,42.82
2018-05-13T04:35:45.380Z,42.82
2018-05-13T04:36:26.778Z,42.91
2018-05-13T04:37:06.422Z,42.53
2018-05-13T04:37:46.953Z,42.34
2018-05-13T04:38:28.115Z,42.34
2018-05-13T04:39:08.652Z,42.24
2018-05-13T04:39:49.173Z,42.63
2018-05-13T04:40:29.700Z,42.44
2018-05-13T04:41:11.965Z,42.44
2018-05-13T04:41:52.436Z,42.53
2018-05-13T04:42:32.977Z,42.44
2018-05-13T04:43:13.513Z,42.44
2018-05-13T04:43:54.044Z,42.44
2018-05-13T04:44:34.571Z,42.44
2018-05-13T04:45:15.103Z,42.46
2018-05-13T04:45:56.281Z,42.44
2018-05-13T04:46:36.399Z,42.44
2018-05-13T04:47:16.923Z,42.44
2018-05-13T04:47:57.478Z,42.44
2018-05-13T04:48:38.031Z,42.53
2018-05-13T04:49:18.564Z,42.46
2018-05-13T04:49:59.082Z,42.44
2018-05-13T04:50:39.614Z,42.46
2018-05-13T04:51:20.780Z,42.46
2018-05-13T04:52:00.657Z,42.34
2018-05-13T04:52:42.099Z,42.07
2018-05-13T04:53:22.634Z,41.97
2018-05-13T04:54:03.182Z,42.46
2018-05-13T04:54:44.616Z,42.17
2018-05-13T04:55:25.659Z,42.36
2018-05-13T04:56:06.173Z,42.27
2018-05-13T04:56:46.704Z,42.27
2018-05-13T04:57:27.789Z,42.36
2018-05-13T04:58:07.760Z,42.27
2018-05-13T04:58:49.280Z,42.27
2018-05-13T04:59:28.810Z,42.17
2018-05-13T05:00:09.322Z,42.27
2018-05-13T05:00:49.851Z,42.07
2018-05-13T05:01:30.379Z,41.88
2018-05-13T05:02:11.782Z,42
2018-05-13T05:02:52.283Z,41.9
2018-05-13T05:03:31.948Z,41.61
2018-05-13T05:04:12.466Z,41.9
2018-05-13T05:04:52.985Z,41.8
2018-05-13T05:05:34.283Z,41.9
2018-05-13T05:06:14.068Z,41.9
2018-05-13T05:06:54.608Z,41.9
2018-05-13T05:07:35.784Z,41.9
2018-05-13T05:08:15.657Z,41.83
2018-05-13T05:08:56.670Z,41.93
2018-05-13T05:09:38.140Z,41.83
2018-05-13T05:10:18.760Z,41.83
2018-05-13T05:10:59.310Z,41.73
2018-05-13T05:11:39.838Z,41.63
2018-05-13T05:12:20.364Z,41.63
2018-05-13T05:13:00.894Z,41.63
2018-05-13T05:13:41.452Z,41.44
2018-05-13T05:14:22.087Z,41.73
2018-05-13T05:15:02.602Z,41.83
2018-05-13T05:15:43.129Z,41.83
2018-05-13T05:16:23.791Z,41.73
2018-05-13T05:17:04.641Z,41.83
2018-05-13T05:17:46.787Z,41.56
2018-05-13T05:18:28.287Z,41.46
2018-05-13T05:19:08.405Z,41.46
2018-05-13T05:19:49.012Z,41.56
2018-05-13T05:20:29.702Z,41.56
2018-05-13T05:21:10.472Z,41.66
2018-05-13T05:21:51.042Z,41.56
2018-05-13T05:22:31.587Z,41.37
2018-05-13T05:23:12.233Z,41.37
2018-05-13T05:23:53.065Z,41.46
2018-05-13T05:24:33.629Z,41.27
2018-05-13T05:25:15.038Z,41.27
2018-05-13T05:25:55.546Z,41.1
2018-05-13T05:26:36.148Z,41.1
2018-05-13T05:27:16.571Z,41.29
2018-05-13T05:27:57.093Z,41.29
2018-05-13T05:28:37.623Z,41.58
2018-05-13T05:29:18.142Z,41.1
2018-05-13T05:29:58.676Z,41.29
2018-05-13T05:30:40.139Z,41.1
2018-05-13T05:31:20.668Z,41.2
2018-05-13T05:32:01.717Z,41.49
2018-05-13T05:32:42.239Z,41.1
2018-05-13T05:33:22.763Z,41.2
2018-05-13T05:34:03.925Z,41.49
2018-05-13T05:34:44.445Z,41.31
2018-05-13T05:35:25.794Z,41.22
2018-05-13T05:36:05.541Z,41.02
2018-05-13T05:36:46.792Z,40.93
2018-05-13T05:37:27.858Z,41.02
2018-05-13T05:38:08.393Z,41.22
2018-05-13T05:38:48.914Z,41.02
2018-05-13T05:39:29.428Z,40.93
2018-05-13T05:40:10.799Z,40.85
2018-05-13T05:40:50.463Z,40.76
2018-05-13T05:41:30.972Z,41.05
2018-05-13T05:42:11.495Z,40.95
2018-05-13T05:42:52.030Z,41.14
2018-05-13T05:43:32.549Z,40.76
2018-05-13T05:44:13.068Z,40.56
2018-05-13T05:44:53.600Z,40.68
2018-05-13T05:45:34.113Z,40.49
2018-05-13T05:46:15.563Z,40.39
2018-05-13T05:46:56.097Z,40.49
2018-05-13T05:47:36.650Z,40.3
2018-05-13T05:48:17.213Z,39.93
2018-05-13T05:48:57.693Z,40.12
2018-05-13T05:49:38.789Z,39.83
2018-05-13T05:50:18.736Z,39.93
2018-05-13T05:50:59.253Z,39.76
2018-05-13T05:51:39.780Z,39.76
2018-05-13T05:52:20.313Z,39.59
2018-05-13T05:53:00.836Z,39.68
2018-05-13T05:53:41.368Z,39.11
2018-05-13T05:54:21.895Z,38.83
2018-05-13T05:55:02.402Z,38.45
2018-05-13T05:55:42.937Z,38.28
2018-05-13T05:56:24.290Z,38.66
2018-05-13T05:57:03.996Z,38.1
2018-05-13T05:57:44.523Z,37.52
2018-05-13T05:58:25.054Z,37.73
2018-05-13T05:59:05.584Z,37.63
2018-05-13T05:59:46.109Z,37.56
2018-05-13T06:00:26.643Z,37.27
2018-05-13T06:01:07.171Z,37.29
2018-05-13T06:01:47.685Z,37
2018-05-13T06:02:28.215Z,36.71
2018-05-13T06:03:08.752Z,36.82
2018-05-13T06:03:49.271Z,36.63
2018-05-13T06:04:30.718Z,36.55
2018-05-13T06:05:11.263Z,36.55
2018-05-13T06:05:51.792Z,36.55
2018-05-13T06:06:32.321Z,36.08
2018-05-13T06:07:12.852Z,36.08
2018-05-13T06:07:54.298Z,36.2
2018-05-13T06:08:34.132Z,36
2018-05-13T06:09:14.668Z,35.81
2018-05-13T06:09:55.179Z,35.83
2018-05-13T06:10:35.705Z,35.93
2018-05-13T06:11:16.799Z,35.93
2018-05-13T06:11:56.743Z,35.75
2018-05-13T06:12:37.283Z,35.75
2018-05-13T06:13:17.813Z,35.85
2018-05-13T06:13:58.335Z,35.85
2018-05-13T06:14:39.189Z,35.48
2018-05-13T06:15:19.723Z,35.57
2018-05-13T06:16:00.340Z,35.67
2018-05-13T06:16:40.837Z,35.49
2018-05-13T06:17:21.388Z,35.69
2018-05-13T06:18:01.930Z,35.49
2018-05-13T06:18:43.307Z,35.3
2018-05-13T06:19:23.346Z,35.4
2018-05-13T06:20:03.952Z,35.61
2018-05-13T06:20:44.497Z,35.41
2018-05-13T06:21:25.041Z,35.14
2018-05-13T06:22:05.572Z,35.14
2018-05-13T06:22:46.092Z,35.05
2018-05-13T06:23:26.634Z,34.75
2018-05-13T06:24:07.157Z,34.77
2018-05-13T06:24:47.686Z,34.97
2018-05-13T06:25:28.218Z,34.67
2018-05-13T06:26:08.827Z,34.58
2018-05-13T06:26:50.304Z,34.69
2018-05-13T06:27:29.870Z,34.5
2018-05-13T06:28:10.395Z,34.5
2018-05-13T06:28:51.440Z,34.61
2018-05-13T06:29:32.805Z,34.61
2018-05-13T06:30:13.689Z,34.61
2018-05-13T06:30:54.154Z,34.7
2018-05-13T06:31:34.725Z,34.7
2018-05-13T06:32:15.344Z,34.82
2018-05-13T06:32:55.775Z,34.53
2018-05-13T06:33:36.274Z,34.33
2018-05-13T06:34:16.823Z,34.14
2018-05-13T06:34:57.648Z,34.16
2018-05-13T06:35:38.268Z,34.16
2018-05-13T06:36:19.127Z,34.06
2018-05-13T06:36:59.682Z,34.35
2018-05-13T06:37:40.208Z,34.25
2018-05-13T06:38:21.144Z,34.27
2018-05-13T06:39:01.938Z,34.27
2018-05-13T06:39:42.777Z,34.27
2018-05-13T06:40:23.211Z,34.17
2018-05-13T06:41:03.730Z,34
2018-05-13T06:41:44.236Z,34.19
2018-05-13T06:42:25.011Z,34
2018-05-13T06:43:05.515Z,33.82
2018-05-13T06:43:46.814Z,33.72
2018-05-13T06:44:26.771Z,33.54
2018-05-13T06:45:07.415Z,33.73
2018-05-13T06:45:48.557Z,33.85
2018-05-13T06:46:29.316Z,33.34
2018-05-13T06:47:09.782Z,33.65
2018-05-13T06:47:50.277Z,33.58
2018-05-13T06:48:31.936Z,33.18
2018-05-13T06:49:13.313Z,33.11
2018-05-13T06:49:53.828Z,32.81
2018-05-13T06:50:34.281Z,32.43
2018-05-13T06:51:15.254Z,32.35
2018-05-13T06:51:55.697Z,32.27
2018-05-13T06:52:36.188Z,31.7
2018-05-13T06:53:16.687Z,31.23
2018-05-13T06:53:57.226Z,30.55
2018-05-13T06:54:37.826Z,30.1
2018-05-13T06:55:18.294Z,29.52
2018-05-13T06:55:59.136Z,29.34
2018-05-13T06:56:39.651Z,29.16
2018-05-13T06:57:20.302Z,28.78
2018-05-13T06:58:00.820Z,28.78
2018-05-13T06:58:41.369Z,28.78
2018-05-13T06:59:22.807Z,28.88
2018-05-13T07:00:03.340Z,28.79
2018-05-13T07:00:43.888Z,28.79
2018-05-13T07:01:25.080Z,28.79
2018-05-13T07:02:05.616Z,29.28
2018-05-13T07:02:46.223Z,29.09
2018-05-13T07:03:26.685Z,29.68
2018-05-13T07:04:07.197Z,29.87
2018-05-13T07:04:48.322Z,29.79
2018-05-13T07:05:28.622Z,29.79
2018-05-13T07:06:09.276Z,29.8
2018-05-13T07:06:49.685Z,29.52
2018-05-13T07:07:31.919Z,29.14
2018-05-13T07:08:13.648Z,28.68
